Time;durP1;ratioP1;P1;durP2;ratioP2;P2;SDS_P1;SDS_P2;PMS_P1;PMS_P2;Temp;Humidity;BMP_temperature;BMP_pressure;BME280_temperature;BME280_humidity;BME280_pressure;Samples;Min_cycle;Max_cycle;Signal;HPM_P1;HPM_P2
2022/01/17 00:01:35;;;;;;;14.77;3.30;;;;;;;;;;4937721;29;20787;-81
2022/01/17 00:04:01;;;;;;;16.02;3.00;;;;;;;;;;4906018;29;20487;-81
2022/01/17 00:06:27;;;;;;;18.95;3.42;;;;;;;;;;4906604;29;20455;-82
2022/01/17 00:08:53;;;;;;;16.23;3.35;;;;;;;;;;4940256;29;20438;-81
2022/01/17 00:11:19;;;;;;;17.55;3.67;;;;;;;;;;4908730;29;20449;-82
2022/01/17 00:13:47;;;;;;;18.60;3.55;;;;;;;;;;4925210;29;20427;-81
2022/01/17 00:16:17;;;;;;;19.17;3.42;;;;;;;;;;4923419;29;20439;-81
2022/01/17 00:21:13;;;;;;;19.23;3.45;;;;;;;;;;4955900;28;20440;-83
2022/01/17 00:23:40;;;;;;;15.73;3.30;;;;;;;;;;4922963;29;20512;-82
2022/01/17 00:26:06;;;;;;;17.23;3.33;;;;;;;;;;4926340;29;20442;-82
2022/01/17 00:28:32;;;;;;;19.87;3.77;;;;;;;;;;4921532;29;20463;-82
2022/01/17 00:31:04;;;;;;;16.70;3.10;;;;;;;;;;4940579;29;20435;-81
2022/01/17 00:33:31;;;;;;;17.75;3.30;;;;;;;;;;4921115;29;20423;-82
2022/01/17 00:35:57;;;;;;;19.88;3.45;;;;;;;;;;4925024;29;20435;-82
2022/01/17 00:38:23;;;;;;;18.08;3.10;;;;;;;;;;4923001;29;20443;-82
2022/01/17 00:40:49;;;;;;;16.75;3.45;;;;;;;;;;4940982;29;20436;-82
2022/01/17 00:43:15;;;;;;;20.27;4.28;;;;;;;;;;4923919;29;20431;-82
2022/01/17 00:45:43;;;;;;;15.85;3.20;;;;;;;;;;4908350;29;20442;-81
2022/01/17 00:48:10;;;;;;;18.88;3.22;;;;;;;;;;4924467;29;20439;-82
2022/01/17 00:50:38;;;;;;;17.10;3.30;;;;;;;;;;4923215;29;20424;-83
2022/01/17 00:53:05;;;;;;;17.92;3.88;;;;;;;;;;4907134;29;21025;-82
2022/01/17 00:55:31;;;;;;;14.27;3.10;;;;;;;;;;4940804;29;20439;-83
2022/01/17 00:57:58;;;;;;;18.95;3.33;;;;;;;;;;4921768;29;20516;-82
2022/01/17 01:00:24;;;;;;;18.80;3.45;;;;;;;;;;4918892;29;20471;-82
2022/01/17 01:02:50;;;;;;;18.15;3.78;;;;;;;;;;4909183;29;21238;-82
2022/01/17 01:05:17;;;;;;;16.63;3.33;;;;;;;;;;4905253;29;20443;-82
2022/01/17 01:07:43;;;;;;;17.05;3.08;;;;;;;;;;4909158;29;20463;-82
2022/01/17 01:10:12;;;;;;;19.52;3.75;;;;;;;;;;4939040;29;20435;-82
2022/01/17 01:12:39;;;;;;;17.23;3.20;;;;;;;;;;4922890;29;20423;-82
2022/01/17 01:15:11;;;;;;;15.52;3.67;;;;;;;;;;4939264;29;20530;-82
2022/01/17 01:17:48;;;;;;;19.73;3.92;;;;;;;;;;4918549;29;20449;-83
2022/01/17 01:20:34;;;;;;;19.00;3.80;;;;;;;;;;4936580;29;20438;-82
2022/01/17 01:28:30;;;;;;;20.20;3.92;;;;;;;;;;4936807;29;20788;-82
2022/01/17 01:30:58;;;;;;;22.40;4.37;;;;;;;;;;4909239;29;20443;-82
2022/01/17 01:33:29;;;;;;;16.98;3.65;;;;;;;;;;4923230;29;20435;-81
2022/01/17 01:36:01;;;;;;;22.70;3.60;;;;;;;;;;4906966;29;20479;-82
2022/01/17 01:38:27;;;;;;;18.77;3.47;;;;;;;;;;4930431;29;20443;-82
2022/01/17 01:40:53;;;;;;;16.58;3.78;;;;;;;;;;4920970;29;20444;-82
2022/01/17 01:43:19;;;;;;;21.52;3.38;;;;;;;;;;4905229;29;21007;-81
2022/01/17 01:45:49;;;;;;;18.80;3.03;;;6.00;99.90;;;;;;4908614;29;20432;-81
2022/01/17 01:48:19;;;;;;;13.65;3.28;;;;;;;;;;4924511;29;20444;-81
2022/01/17 01:50:45;;;;;;;17.73;4.07;;;;;;;;;;4920303;29;20447;-82
2022/01/17 01:53:12;;;;;;;17.92;3.58;;;;;;;;;;4938690;29;20486;-81
2022/01/17 01:55:38;;;;;;;22.65;4.00;;;;;;;;;;4920966;29;20436;-82
2022/01/17 01:58:04;;;;;;;22.25;3.65;;;;;;;;;;4905667;29;20437;-82
2022/01/17 02:00:30;;;;;;;19.97;4.07;;;;;;;;;;4921383;29;20509;-81
2022/01/17 02:02:57;;;;;;;23.23;4.03;;;;;;;;;;4914984;29;20448;-82
2022/01/17 02:05:23;;;;;;;22.63;4.55;;;;;;;;;;4924915;29;20449;-82
2022/01/17 02:07:49;;;;;;;17.58;3.10;;;;;;;;;;4939665;29;20433;-83
2022/01/17 02:10:15;;;;;;;21.63;3.87;;;;;;;;;;4923742;29;20431;-82
2022/01/17 02:12:41;;;;;;;21.58;4.20;;;;;;;;;;4907406;29;20435;-82
2022/01/17 02:15:11;;;;;;;14.63;3.40;;;;;;;;;;4932182;29;20446;-81
2022/01/17 02:17:44;;;;;;;18.15;3.58;;;;;;;;;;4916594;29;20505;-81
2022/01/17 02:20:16;;;;;;;21.50;3.57;;;;;;;;;;4921602;29;20431;-82
2022/01/17 02:22:42;;;;;;;20.53;4.20;;;;;;;;;;4920262;29;20439;-82
2022/01/17 02:25:09;;;;;;;25.40;4.35;;;;;;;;;;4902852;29;20437;-82
2022/01/17 02:27:35;;;;;;;20.27;4.00;;;;;;;;;;4938338;29;20535;-82
2022/01/17 02:30:01;;;;;;;20.05;3.58;;;;;;;;;;4920461;29;20435;-82
2022/01/17 02:32:27;;;;;;;18.52;4.00;;;;;;;;;;4907160;29;20439;-82
2022/01/17 02:35:10;;;;;;;24.27;3.88;;;;;;;;;;4939447;29;20486;-82
2022/01/17 02:37:36;;;;;;;25.07;3.67;;;;;;;;;;4921024;29;20546;-83
2022/01/17 02:40:02;;;;;;;20.75;3.85;;;;;;;;;;4923166;29;20495;-82
2022/01/17 02:42:28;;;;;;;20.92;4.32;;;;;;;;;;4905304;29;20554;-81
2022/01/17 02:45:00;;;;;;;21.33;4.28;;;;;;;;;;4909607;29;20463;-81
2022/01/17 02:47:26;;;;;;;17.00;3.97;;;;;;;;;;4908126;29;20432;-82
2022/01/17 02:49:52;;;;;;;23.27;3.80;;;;;;;;;;4921362;29;20449;-82
2022/01/17 02:52:23;;;;;;;18.77;3.53;;;;;;;;;;4901197;29;20472;-82
2022/01/17 02:54:49;;;;;;;19.52;4.20;;;;;;;;;;4920953;29;20455;-82
2022/01/17 02:57:15;;;;;;;19.88;3.88;;;;;;;;;;4907534;29;20443;-82
2022/01/17 02:59:41;;;;;;;17.30;3.67;;;;;;;;;;4902766;29;20442;-82
2022/01/17 03:02:07;;;;;;;16.17;3.35;;;;;;;;;;4904935;29;20463;-82
2022/01/17 03:04:33;;;;;;;14.85;3.50;;;;;;;;;;4923331;29;20435;-82
2022/01/17 03:07:00;;;;;;;22.58;4.18;;;;;;;;;;4901155;29;22385;-82
2022/01/17 03:09:30;;;;;;;21.08;4.03;;;;;;;;;;4907780;29;20423;-82
2022/01/17 03:11:56;;;;;;;21.25;4.38;;;;;;;;;;4903562;29;20458;-82
2022/01/17 03:14:23;;;;;;;19.83;3.90;;;;;;;;;;4906079;29;20435;-82
2022/01/17 03:16:49;;;;;;;24.42;3.72;;;;;;;;;;4887126;29;20447;-80
2022/01/17 03:19:15;;;;;;;21.75;3.63;;;5.60;99.90;;;;;;4906098;29;20499;-81
2022/01/17 03:21:41;;;;;;;18.13;3.67;;;;;;;;;;4917307;29;20533;-81
2022/01/17 03:24:08;;;;;;;18.02;3.33;;;;;;;;;;4921063;29;21011;-81
2022/01/17 03:26:34;;;;;;;19.27;3.63;;;5.50;99.90;;;;;;4919951;29;21064;-81
2022/01/17 03:29:02;;;;;;;18.77;3.97;;;;;;;;;;4905556;29;20446;-81
2022/01/17 03:31:29;;;;;;;16.45;3.72;;;;;;;;;;4919851;29;20530;-81
2022/01/17 03:33:55;;;;;;;22.75;3.95;;;;;;;;;;4922601;29;20434;-81
2022/01/17 03:36:21;;;;;;;16.15;3.30;;;;;;;;;;4904573;29;20508;-81
2022/01/17 03:38:50;;;;;;;19.40;4.15;;;;;;;;;;4922711;29;20436;-81
2022/01/17 03:41:16;;;;;;;17.95;3.15;;;;;;;;;;4904085;29;20462;-81
2022/01/17 03:43:42;;;;;;;19.95;3.58;;;;;;;;;;4904777;29;20447;-80
2022/01/17 03:46:08;;;;;;;21.63;4.07;;;;;;;;;;4902089;29;20437;-80
2022/01/17 03:48:35;;;;;;;17.20;3.10;;;;;;;;;;4924548;29;20444;-80
2022/01/17 03:51:01;;;;;;;19.83;3.63;;;;;;;;;;4923817;29;20439;-81
2022/01/17 03:53:28;;;;;;;17.63;3.72;;;;;;;;;;4924157;29;20438;-80
2022/01/17 03:55:55;;;;;;;14.90;3.40;;;;;;;;;;4907446;29;20548;-80
2022/01/17 03:58:22;;;;;;;17.65;3.20;;;;;;;;;;4922321;29;20851;-79
2022/01/17 04:00:48;;;;;;;17.38;3.20;;;;;;;;;;4923879;29;20431;-80
2022/01/17 04:03:15;;;;;;;15.82;3.22;;;;;;;;;;4915134;29;20448;-80
2022/01/17 04:05:41;;;;;;;14.93;3.05;;;;;;;;;;4931958;29;20443;-80
2022/01/17 04:08:07;;;;;;;14.35;2.90;;;;;;;;;;4924918;29;20435;-79
2022/01/17 04:10:34;;;;;;;16.02;3.63;;;;;;;;;;4923545;29;20857;-81
2022/01/17 04:13:03;;;;;;;20.90;3.90;;;;;;;;;;4924798;29;20435;-79
2022/01/17 04:15:29;;;;;;;16.50;3.15;;;;;;;;;;4906080;29;20444;-80
2022/01/17 04:17:56;;;;;;;18.02;3.38;;;;;;;;;;4925370;29;20431;-80
2022/01/17 04:20:27;;;;;;;15.85;3.10;;;;;;;;;;4925507;29;20482;-79
2022/01/17 04:22:55;;;;;;;19.10;3.60;;;5.70;99.90;;;;;;4922394;29;20883;-81
2022/01/17 04:25:23;;;;;;;17.67;2.88;;;;;;;;;;4926042;29;20459;-80
2022/01/17 04:27:49;;;;;;;15.97;3.17;;;;;;;;;;4927141;29;20436;-80
2022/01/17 04:30:16;;;;;;;19.55;3.40;;;;;;;;;;4922836;29;21079;-80
2022/01/17 04:32:43;;;;;;;12.63;3.10;;;;;;;;;;4919083;29;20441;-78
2022/01/17 04:35:09;;;;;;;16.75;3.47;;;;;;;;;;4941561;29;20443;-78
2022/01/17 04:37:36;;;;;;;14.85;3.40;;;;;;;;;;4907467;29;20479;-79
2022/01/17 04:40:02;;;;;;;16.90;3.25;;;;;;;;;;4939407;29;20505;-80
2022/01/17 04:42:28;;;;;;;18.15;3.25;;;;;;;;;;4908360;29;20444;-79
2022/01/17 04:45:07;;;;;;;20.83;3.97;;;;;;;;;;4905189;29;20822;-80
2022/01/17 04:47:34;;;;;;;19.63;3.40;;;;;;;;;;4920506;29;20427;-79
2022/01/17 04:50:00;;;;;;;18.08;3.55;;;;;;;;;;4922761;29;20475;-79
2022/01/17 04:52:27;;;;;;;17.67;3.67;;;;;;;;;;4924545;29;20522;-79
2022/01/17 04:54:55;;;;;;;16.00;3.63;;;;;;;;;;4906389;29;20482;-79
2022/01/17 04:57:21;;;;;;;16.85;4.07;;;;;;;;;;4924723;29;20454;-80
2022/01/17 04:59:48;;;;;;;20.45;3.88;;;;;;;;;;4924177;29;20436;-79
2022/01/17 05:02:15;;;;;;;18.73;4.10;;;;;;;;;;4921953;29;20526;-79
2022/01/17 05:04:41;;;;;;;17.42;3.58;;;;;;;;;;4924652;29;20450;-79
2022/01/17 05:07:07;;;;;;;20.17;4.00;;;;;;;;;;4922831;29;20431;-79
2022/01/17 05:09:33;;;;;;;17.13;4.40;;;;;;;;;;4923680;29;20444;-79
2022/01/17 05:12:00;;;;;;;18.52;3.67;;;;;;;;;;4906647;29;20435;-78
2022/01/17 05:14:27;;;;;;;18.13;4.03;;;;;;;;;;4922886;29;22589;-79
2022/01/17 05:17:01;;;;;;;18.10;4.70;;;;;;;;;;4906117;29;20444;-79
2022/01/17 05:22:12;;;;;;;20.80;4.65;;;;;;;;;;4953587;28;20443;-79
2022/01/17 05:24:38;;;;;;;18.07;4.33;;;;;;;;;;4891692;29;20942;-79
2022/01/17 05:27:04;;;;;;;16.85;4.38;;;;;;;;;;4923014;29;20443;-79
2022/01/17 05:29:30;;;;;;;21.10;4.80;;;;;;;;;;4904811;29;20462;-79
2022/01/17 05:31:57;;;;;;;20.00;4.57;;;;;;;;;;4907188;29;20451;-79
2022/01/17 05:34:23;;;;;;;21.52;4.78;;;;;;;;;;4906358;29;20435;-79
2022/01/17 05:36:49;;;;;;;23.05;4.95;;;;;;;;;;4908463;29;20450;-79
2022/01/17 05:39:15;;;;;;;21.52;5.03;;;;;;;;;;4923458;29;20438;-79
2022/01/17 05:41:41;;;;;;;20.65;4.85;;;;;;;;;;4939399;29;20518;-79
2022/01/17 05:44:08;;;;;;;16.27;4.30;;;;;;;;;;4922381;29;20439;-80
2022/01/17 05:46:34;;;;;;;18.40;5.07;;;;;;;;;;4936279;29;20421;-79
2022/01/17 05:49:00;;;;;;;23.42;4.82;;;;;;;;;;4920842;29;20507;-79
2022/01/17 05:51:26;;;;;;;21.67;5.03;;;;;;;;;;4903572;29;20436;-79
2022/01/17 05:53:52;;;;;;;20.77;4.85;;;;;;;;;;4918037;29;20428;-79
2022/01/17 05:56:18;;;;;;;23.85;5.95;;;;;;;;;;4907229;29;20447;-80
2022/01/17 05:58:44;;;;;;;22.88;4.75;;;;;;;;;;4921355;29;20424;-79
2022/01/17 06:01:12;;;;;;;21.10;4.70;;;;;;;;;;4903813;29;20425;-79
2022/01/17 06:03:38;;;;;;;20.77;5.15;;;;;;;;;;4936029;29;20431;-78
2022/01/17 06:06:05;;;;;;;19.63;5.18;;;;;;;;;;4907224;29;20781;-79
2022/01/17 06:08:31;;;;;;;20.93;5.10;;;;;;;;;;4922518;29;20435;-79
2022/01/17 06:10:57;;;;;;;17.90;4.60;;;;;;;;;;4904175;29;20438;-80
2022/01/17 06:13:24;;;;;;;23.55;5.10;;;;;;;;;;4891057;29;20475;-80
2022/01/17 06:15:53;;;;;;;22.63;5.35;;;;;;;;;;4903806;29;20557;-79
2022/01/17 06:18:19;;;;;;;23.02;5.07;;;;;;;;;;4903865;29;20447;-79
2022/01/17 06:20:45;;;;;;;26.10;5.70;;;;;;;;;;4904567;29;20487;-79
2022/01/17 06:23:11;;;;;;;23.65;5.60;;;;;;;;;;4918315;29;20467;-80
2022/01/17 06:25:37;;;;;;;22.50;5.47;;;;;;;;;;4903395;29;20444;-81
2022/01/17 06:28:03;;;;;;;24.02;6.13;;;;;;;;;;4936860;29;20582;-80
2022/01/17 06:30:29;;;;;;;22.08;5.50;;;;;;;;;;4922363;29;20428;-80
2022/01/17 06:32:56;;;;;;;19.02;5.78;;;;;;;;;;4921808;29;20475;-80
2022/01/17 06:35:23;;;;;;;23.83;6.30;;;;;;;;;;4904444;29;20453;-80
2022/01/17 06:37:51;;;;;;;24.95;5.80;;;;;;;;;;4899180;29;21038;-82
2022/01/17 06:40:18;;;;;;;24.35;5.88;;;;;;;;;;4923188;29;20482;-80
2022/01/17 06:42:46;;;;;;;27.63;6.13;;;;;;;;;;4921884;29;20435;-80
2022/01/17 06:45:14;;;;;;;25.30;6.18;;;;;;;;;;4918981;29;20443;-80
2022/01/17 06:47:41;;;;;;;30.75;6.65;;;;;;;;;;4918904;29;20514;-80
2022/01/17 06:50:08;;;;;;;25.35;6.45;;;;;;;;;;4920711;29;20431;-81
2022/01/17 06:52:35;;;;;;;23.35;6.60;;;;;;;;;;4921404;29;20446;-81
2022/01/17 06:55:01;;;;;;;24.95;5.55;;;;;;;;;;4919042;29;20979;-81
2022/01/17 06:57:27;;;;;;;26.27;6.47;;;;;;;;;;4907546;29;20459;-81
2022/01/17 06:59:55;;;;;;;31.08;6.97;;;;;;;;;;4919723;29;20434;-80
2022/01/17 07:02:21;;;;;;;26.63;6.10;;;;;;;;;;4920185;29;20446;-81
2022/01/17 07:04:47;;;;;;;33.42;6.78;;;;;;;;;;4921146;29;20618;-81
2022/01/17 07:07:13;;;;;;;31.63;6.00;;;;;;;;;;4936270;29;20432;-80
2022/01/17 07:09:39;;;;;;;31.98;6.45;;;;;;;;;;4903946;29;20949;-81
2022/01/17 07:12:06;;;;;;;32.60;6.57;;;;;;;;;;4920366;29;20419;-81
2022/01/17 07:14:32;;;;;;;32.15;6.93;;;;;;;;;;4920469;29;20439;-80
2022/01/17 07:16:59;;;;;;;36.60;6.77;;;;;;;;;;4920587;29;20443;-82
2022/01/17 07:19:25;;;;;;;26.08;6.47;;;;;;;;;;4919960;29;20431;-81
2022/01/17 07:21:52;;;;;;;34.28;7.28;;;;;;;;;;4923325;29;20443;-81
2022/01/17 07:24:18;;;;;;;28.98;5.72;;;;;;;;;;4905397;29;20540;-81
2022/01/17 07:26:44;;;;;;;32.20;6.00;;;;;;;;;;4916472;29;20439;-81
2022/01/17 07:29:10;;;;;;;30.98;6.40;;;;;;;;;;4901775;29;20475;-81
2022/01/17 07:31:37;;;;;;;30.07;6.03;;;;;;;;;;4905679;29;20432;-81
2022/01/17 07:34:04;;;;;;;37.03;6.70;;;;;;;;;;4905339;29;20446;-78
2022/01/17 07:36:30;;;;;;;35.47;6.23;;;;;;;;;;4920872;29;20536;-79
2022/01/17 07:38:57;;;;;;;26.85;6.10;;;6.70;99.90;;;;;;4920026;29;20447;-79
2022/01/17 07:41:23;;;;;;;33.23;6.30;;;;;;;;;;4918386;29;20552;-80
2022/01/17 07:43:51;;;;;;;35.97;6.03;;;;;;;;;;4918305;29;20443;-79
2022/01/17 07:46:25;;;;;;;32.92;6.30;;;;;;;;;;4893965;29;20433;-78
2022/01/17 07:51:30;;;;;;;34.40;6.93;;;;;;;;;;4938109;29;20459;-78
2022/01/17 07:53:56;;;;;;;34.30;6.70;;;;;;;;;;4902952;29;20443;-78
2022/01/17 07:56:25;;;;;;;35.65;6.68;;;;;;;;;;4917097;29;20812;-79
2022/01/17 07:58:52;;;;;;;27.30;6.00;;;;;;;;;;4916528;29;20493;-78
2022/01/17 08:01:18;;;;;;;34.85;6.30;;;;;;;;;;4904662;29;20458;-78
2022/01/17 08:03:44;;;;;;;30.15;6.18;;;;;;;;;;4940406;28;20538;-78
2022/01/17 08:06:10;;;;;;;32.65;6.45;;;;;;;;;;4918078;29;20459;-79
2022/01/17 08:08:36;;;;;;;31.50;6.03;;;;;;;;;;4922029;29;20457;-78
2022/01/17 08:11:02;;;;;;;37.65;7.00;;;;;;;;;;4901705;29;20541;-78
2022/01/17 08:13:28;;;;;;;37.53;7.03;;;;;;;;;;4902313;29;20430;-78
2022/01/17 08:15:55;;;;;;;31.67;5.95;;;;;;;;;;4901466;29;20431;-77
2022/01/17 08:18:22;;;;;;;32.80;6.38;;;;;;;;;;4916945;29;20857;-78
2022/01/17 08:20:48;;;;;;;34.85;6.63;;;;;;;;;;4918165;29;20474;-78
2022/01/17 08:23:14;;;;;;;28.25;5.78;;;;;;;;;;4904630;29;20467;-78
2022/01/17 08:25:40;;;;;;;29.08;5.90;;;;;;;;;;4906502;29;20482;-78
2022/01/17 08:28:06;;;;;;;35.83;6.33;;;;;;;;;;4904458;29;20536;-79
2022/01/17 08:30:33;;;;;;;36.20;7.85;;;;;;;;;;4904615;29;20470;-77
2022/01/17 08:32:59;;;;;;;34.07;6.47;;;;;;;;;;4906178;29;20879;-79
2022/01/17 08:35:26;;;;;;;37.50;7.13;;;;;;;;;;4936364;29;20443;-80
2022/01/17 08:37:52;;;;;;;31.67;6.95;;;;;;;;;;4917614;29;20445;-80
2022/01/17 08:40:18;;;;;;;30.02;6.40;;;;;;;;;;4908621;29;20442;-80
2022/01/17 08:42:45;;;;;;;32.13;6.20;;;;;;;;;;4936959;29;20443;-79
2022/01/17 08:45:12;;;;;;;39.10;7.20;;;;;;;;;;4905817;29;20466;-80
2022/01/17 08:47:38;;;;;;;34.75;6.45;;;;;;;;;;4933409;29;20423;-80
2022/01/17 08:50:05;;;;;;;28.05;6.63;;;;;;;;;;4904143;29;20562;-79
2022/01/17 08:52:31;;;;;;;33.83;6.80;;;;;;;;;;4920985;29;20435;-79
2022/01/17 08:54:58;;;;;;;30.90;6.60;;;;;;;;;;4916119;29;20503;-79
2022/01/17 08:57:24;;;;;;;39.17;6.63;;;;;;;;;;4927219;29;20449;-78
2022/01/17 08:59:51;;;;;;;33.10;5.95;;;;;;;;;;4922389;29;20452;-79
2022/01/17 09:02:17;;;;;;;28.48;5.93;;;;;;;;;;4919191;29;20436;-80
2022/01/17 09:04:43;;;;;;;28.80;6.85;;;;;;;;;;4937303;29;20444;-79
2022/01/17 09:07:14;;;;;;;37.03;6.25;;;;;;;;;;4919222;29;20427;-80
2022/01/17 09:09:40;;;;;;;33.42;6.60;;;;;;;;;;4941186;29;20443;-80
2022/01/17 09:12:08;;;;;;;31.42;6.78;;;8.20;99.90;;;;;;4919424;29;21009;-76
2022/01/17 09:14:34;;;;;;;31.17;5.93;;;;;;;;;;4920071;29;20490;-79
2022/01/17 09:17:01;;;;;;;34.22;6.65;;;;;;;;;;4937619;29;20502;-79
2022/01/17 09:19:28;;;;;;;32.90;6.30;;;;;;;;;;4920837;29;20445;-78
2022/01/17 09:21:54;;;;;;;33.67;6.15;;;;;;;;;;4917864;29;21011;-79
2022/01/17 09:24:20;;;;;;;31.13;6.72;;;;;;;;;;4904201;29;20429;-79
2022/01/17 09:26:46;;;;;;;27.70;6.38;;;;;;;;;;4939501;29;20428;-80
2022/01/17 09:29:13;;;;;;;31.58;6.28;;;;;;;;;;4937462;29;20431;-81
2022/01/17 09:31:39;;;;;;;31.77;7.37;;;;;;;;;;4923035;29;20442;-78
2022/01/17 09:34:06;;;;;;;32.80;7.05;;;;;;;;;;4923779;29;20531;-77
2022/01/17 09:36:34;;;;;;;29.90;6.28;;;;;;;;;;4921996;29;20456;-79
2022/01/17 09:39:05;;;;;;;38.10;7.55;;;;;;;;;;4922467;29;22191;-78
2022/01/17 09:41:31;;;;;;;28.33;6.25;;;;;;;;;;4915869;29;20820;-79
2022/01/17 09:43:58;;;;;;;36.53;7.38;;;;;;;;;;4923652;29;20467;-79
2022/01/17 09:46:27;;;;;;;32.28;7.13;;;;;;;;;;4920967;29;20435;-78
2022/01/17 09:49:01;;;;;;;31.92;6.93;;;;;;;;;;4920302;29;20461;-80
2022/01/17 09:52:02;;;;;;;37.95;7.45;;;;;;;;;;4919806;29;20440;-80
2022/01/17 09:54:30;;;;;;;35.33;7.00;;;;;;;;;;4935152;29;20462;-79
2022/01/17 09:56:57;;;;;;;34.00;7.30;;;;;;;;;;4936729;29;20511;-79
2022/01/17 09:59:23;;;;;;;35.65;7.43;;;8.70;99.90;;;;;;4936057;29;20450;-77
2022/01/17 10:01:49;;;;;;;38.20;7.22;;;;;;;;;;4889787;29;20447;-80
2022/01/17 10:04:17;;;;;;;39.75;7.35;;;;;;;;;;4908637;29;20424;-79
2022/01/17 10:07:04;;;;;;;34.22;7.43;;;;;;;;;;4907772;29;20442;-79
2022/01/17 10:09:33;;;;;;;33.78;7.05;;;;;;;;;;4922565;29;20437;-80
2022/01/17 10:12:09;;;;;;;35.47;7.28;;;;;;;;;;4892749;29;20468;-80
2022/01/17 10:15:03;;;;;;;33.28;7.65;;;;;;;;;;4905755;29;20448;-81
2022/01/17 10:17:56;;;;;;;35.85;7.70;;;;;;;;;;4896639;29;20443;-79
2022/01/17 10:20:22;;;;;;;31.65;7.65;;;;;;;;;;4935551;29;20433;-79
2022/01/17 10:23:15;;;;;;;32.63;6.78;;;;;;;;;;4908102;29;20474;-78
2022/01/17 10:25:56;;;;;;;29.10;6.67;;;;;;;;;;4911225;29;20431;-80
2022/01/17 10:31:34;;;;;;;39.20;8.40;;;;;;;;;;4937648;29;20498;-80
2022/01/17 10:36:58;;;;;;;33.42;8.15;;;;;;;;;;4934294;29;20443;-79
2022/01/17 10:39:24;;;;;;;39.93;8.63;;;;;;;;;;4908423;29;20466;-79
2022/01/17 10:41:50;;;;;;;39.20;8.52;;;;;;;;;;4907657;29;20435;-80
2022/01/17 10:44:32;;;;;;;36.60;8.43;;;;;;;;;;4896812;29;20508;-79
2022/01/17 10:47:17;;;;;;;36.47;7.82;;;;;;;;;;4922096;29;20575;-80
2022/01/17 10:50:05;;;;;;;39.20;8.03;;;;;;;;;;4932558;29;20484;-80
2022/01/17 10:52:31;;;;;;;38.13;8.98;;;9.60;99.90;;;;;;4898244;29;20501;-79
2022/01/17 10:54:58;;;;;;;39.00;8.27;;;;;;;;;;4927826;29;20447;-79
2022/01/17 10:57:25;;;;;;;37.63;8.43;;;;;;;;;;4905806;29;20572;-79
2022/01/17 10:59:52;;;;;;;34.60;8.30;;;;;;;;;;4898285;29;20477;-78
2022/01/17 11:02:18;;;;;;;42.13;9.03;;;9.60;99.90;;;;;;4882726;29;20430;-79
2022/01/17 11:04:48;;;;;;;41.85;9.43;;;;;;;;;;4872158;29;20414;-81
2022/01/17 11:07:14;;;;;;;45.53;9.37;;;;;;;;;;4919863;29;20533;-79
2022/01/17 11:09:41;;;;;;;41.05;8.57;;;;;;;;;;4886295;29;20473;-79
2022/01/17 11:12:11;;;;;;;41.70;9.02;;;;;;;;;;4899299;29;20438;-78
2022/01/17 11:14:38;;;;;;;42.83;9.50;;;;;;;;;;4885483;29;20440;-77
2022/01/17 11:17:22;;;;;;;40.85;8.65;;;;;;;;;;4888660;29;20445;-78
2022/01/17 11:20:07;;;;;;;46.53;9.17;;;;;;;;;;4915243;29;20437;-81
2022/01/17 11:22:35;;;;;;;43.97;9.77;;;;;;;;;;4900885;29;20459;-82
2022/01/17 11:25:01;;;;;;;43.38;9.70;;;;;;;;;;4901593;29;20452;-83
2022/01/17 11:27:27;;;;;;;40.28;8.57;;;;;;;;;;4872499;29;20963;-78
2022/01/17 11:29:55;;;;;;;42.17;8.43;;;;;;;;;;4860441;29;20433;-77
2022/01/17 11:32:20;;;;;;;36.05;9.10;;;9.90;99.90;;;;;;4903113;29;20992;-77
2022/01/17 11:34:47;;;;;;;40.17;8.98;;;;;;;;;;4872019;29;20462;-79
2022/01/17 11:37:13;;;;;;;39.85;9.35;;;;;;;;;;4870848;29;20452;-78
2022/01/17 11:39:56;;;;;;;45.38;10.80;;;;;;;;;;4895810;29;20961;-78
2022/01/17 11:42:28;;;;;;;43.53;8.75;;;;;;;;;;4890197;29;20477;-79
2022/01/17 11:44:54;;;;;;;43.25;9.55;;;;;;;;;;4885851;29;20500;-79
2022/01/17 11:47:39;;;;;;;40.10;9.50;;;;;;;;;;4887921;29;20429;-77
2022/01/17 11:50:24;;;;;;;37.95;8.93;;;;;;;;;;4885673;29;20513;-80
2022/01/17 11:52:50;;;;;;;41.55;9.07;;;;;;;;;;4886418;29;20448;-78
2022/01/17 11:55:55;;;;;;;39.22;9.02;;;;;;;;;;4883897;29;20445;-78
2022/01/17 11:58:22;;;;;;;35.42;7.82;;;;;;;;;;4841678;29;20444;-78
2022/01/17 12:00:57;;;;;;;41.45;8.38;;;;;;;;;;4828287;29;20525;-79
2022/01/17 12:03:25;;;;;;;33.90;8.38;;;;;;;;;;4863278;29;20555;-79
2022/01/17 12:05:52;;;;;;;35.90;8.80;;;;;;;;;;4904013;29;20433;-77
2022/01/17 12:08:20;;;;;;;43.55;9.77;;;;;;;;;;4889979;29;20437;-80
2022/01/17 12:10:48;;;;;;;43.78;9.90;;;;;;;;;;4890598;29;20448;-80
2022/01/17 12:13:17;;;;;;;43.05;9.00;;;;;;;;;;4911795;29;21677;-78
2022/01/17 12:16:06;;;;;;;45.92;9.70;;;;;;;;;;4886856;29;20452;-80
2022/01/17 12:18:38;;;;;;;40.08;9.30;;;10.70;99.90;;;;;;4890010;29;20929;-79
2022/01/17 12:21:23;;;;;;;45.65;9.38;;;;;;;;;;4891173;29;20429;-79
2022/01/17 12:23:50;;;;;;;39.95;9.07;;;;;;;;;;4884183;29;20437;-78
2022/01/17 12:26:30;;;;;;;33.75;8.30;;;;;;;;;;4890255;29;20948;-78
2022/01/17 12:28:57;;;;;;;43.00;9.80;;;;;;;;;;4880916;29;20582;-78
2022/01/17 12:31:53;;;;;;;37.95;9.13;;;;;;;;;;4907121;29;20448;-78
2022/01/17 12:34:24;;;;;;;39.05;9.10;;;;;;;;;;4890433;29;20652;-78
2022/01/17 12:36:55;;;;;;;37.25;8.85;;;;;;;;;;4890553;29;20469;-78
2022/01/17 12:39:22;;;;;;;44.70;9.15;;;;;;;;;;4888366;29;20931;-78
2022/01/17 12:41:52;;;;;;;38.72;8.52;;;;;;;;;;4887990;29;20513;-78
2022/01/17 12:44:24;;;;;;;36.83;8.07;;;;;;;;;;4907523;29;20948;-78
2022/01/17 12:46:54;;;;;;;35.22;9.23;;;;;;;;;;4899167;29;20459;-77
2022/01/17 12:49:21;;;;;;;38.65;9.15;;;;;;;;;;4887656;29;20465;-77
2022/01/17 12:51:48;;;;;;;40.58;8.73;;;;;;;;;;4928718;29;20453;-78
2022/01/17 12:54:16;;;;;;;35.90;8.93;;;;;;;;;;4887454;29;21053;-78
2022/01/17 12:56:43;;;;;;;38.97;9.33;;;;;;;;;;4889477;29;20505;-77
2022/01/17 12:59:09;;;;;;;46.45;8.93;;;;;;;;;;4904018;29;20476;-76
2022/01/17 13:01:35;;;;;;;36.90;8.57;;;;;;;;;;4891301;29;20524;-77
2022/01/17 13:04:06;;;;;;;43.13;8.98;;;;;;;;;;4889853;29;20480;-76
2022/01/17 13:06:32;;;;;;;40.95;8.25;;;;;;;;;;4901261;29;20528;-77
2022/01/17 13:09:01;;;;;;;40.72;9.35;;;;;;;;;;4903991;29;20809;-77
2022/01/17 13:11:27;;;;;;;41.00;9.40;;;;;;;;;;4899672;29;20800;-77
2022/01/17 13:14:01;;;;;;;36.83;8.50;;;;;;;;;;4872562;29;20959;-83
2022/01/17 13:16:31;;;;;;;35.03;8.07;;;;;;;;;;4906363;29;20766;-81
2022/01/17 13:18:58;;;;;;;38.85;8.98;;;9.60;99.90;;;;;;4889150;29;20441;-80
2022/01/17 13:21:24;;;;;;;34.22;9.07;;;;;;;;;;4874456;29;20825;-79
2022/01/17 13:23:59;;;;;;;43.55;8.93;;;;;;;;;;4886861;29;20476;-81
2022/01/17 13:26:31;;;;;;;46.50;10.05;;;;;;;;;;4906495;29;20452;-80
2022/01/17 13:28:59;;;;;;;44.13;8.43;;;;;;;;;;4885640;29;20510;-86
2022/01/17 13:31:27;;;;;;;39.00;8.20;;;;;;;;;;4900865;29;20798;-82
2022/01/17 13:33:54;;;;;;;36.67;8.67;;;;;;;;;;4901000;29;20437;-79
2022/01/17 13:36:21;;;;;;;36.30;8.43;;;;;;;;;;4921011;29;20453;-84
2022/01/17 13:39:05;;;;;;;39.55;8.52;;;;;;;;;;4888839;29;20445;-86
2022/01/17 13:41:31;;;;;;;38.30;9.00;;;;;;;;;;4924435;29;20433;-80
2022/01/17 13:43:57;;;;;;;42.20;9.77;;;;;;;;;;4904101;29;20468;-78
2022/01/17 13:46:23;;;;;;;44.85;9.50;;;;;;;;;;4887567;29;20946;-80
2022/01/17 13:48:49;;;;;;;42.10;9.18;;;;;;;;;;4906064;29;20460;-83
2022/01/17 13:51:16;;;;;;;43.20;8.97;;;;;;;;;;4870512;29;20486;-80
2022/01/17 13:53:42;;;;;;;42.33;9.82;;;;;;;;;;4869835;29;20845;-81
2022/01/17 13:56:09;;;;;;;37.30;9.48;;;;;;;;;;4913674;28;20421;-81
2022/01/17 13:58:41;;;;;;;44.10;9.38;;;;;;;;;;4956710;28;20458;-82
2022/01/17 14:01:11;;;;;;;37.17;8.45;;;;;;;;;;4942011;29;20445;-82
2022/01/17 14:03:39;;;;;;;35.63;7.97;;;;;;;;;;4926722;28;20561;-79
2022/01/17 14:06:09;;;;;;;38.03;7.75;;;;;;;;;;4923004;29;20451;-83
2022/01/17 14:08:40;;;;;;;31.48;7.97;;;;;;;;;;4928120;28;20447;-80
2022/01/17 14:11:07;;;;;;;26.25;7.47;;;;;;;;;;4924965;29;20437;-80
2022/01/17 14:13:44;;;;;;;34.13;7.35;;;9.60;99.90;;;;;;4923724;29;20435;-82
2022/01/17 14:16:20;;;;;;;31.25;7.90;;;;;;;;;;4939916;29;20453;-85
2022/01/17 14:18:48;;;;;;;32.65;7.68;;;;;;;;;;4926622;29;20441;-83
2022/01/17 14:21:21;;;;;;;41.65;7.97;;;;;;;;;;4928437;29;20461;-82
2022/01/17 14:23:47;;;;;;;41.13;9.47;;;;;;;;;;4924743;28;20472;-83
2022/01/17 14:26:25;;;;;;;40.03;9.05;;;;;;;;;;4909883;28;20449;-82
2022/01/17 14:28:51;;;;;;;38.42;8.30;;;;;;;;;;4920003;29;20445;-81
2022/01/17 14:31:17;;;;;;;38.15;9.15;;;;;;;;;;4919875;28;20434;-82
2022/01/17 14:33:48;;;;;;;39.30;8.85;;;;;;;;;;4909915;28;20438;-81
2022/01/17 14:36:16;;;;;;;37.97;9.65;;;;;;;;;;4923530;29;20433;-79
2022/01/17 14:38:45;;;;;;;35.03;8.75;;;;;;;;;;4940772;28;20505;-81
2022/01/17 14:41:32;;;;;;;41.47;8.73;;;9.50;99.90;;;;;;4923339;28;20446;-79
2022/01/17 14:44:02;;;;;;;40.88;9.48;;;;;;;;;;4939974;29;20473;-80
2022/01/17 14:46:28;;;;;;;40.83;9.80;;;;;;;;;;4929562;28;20526;-80
2022/01/17 14:48:54;;;;;;;44.10;9.38;;;;;;;;;;4913022;29;21039;-80
2022/01/17 14:51:22;;;;;;;37.75;8.30;;;;;;;;;;4921905;29;20444;-80
2022/01/17 14:53:54;;;;;;;42.58;8.80;;;;;;;;;;4922817;28;20438;-79